createdAt,value
2023-03-26T00:01:17.069Z,5.24
2023-03-26T00:03:47.166Z,5.12
2023-03-26T00:06:17.208Z,4.85
2023-03-26T00:08:45.784Z,4.90
2023-03-26T00:11:14.833Z,4.94
2023-03-26T00:13:43.712Z,4.88
2023-03-26T00:16:13.745Z,4.74
2023-03-26T00:18:42.479Z,4.76
2023-03-26T00:21:13.093Z,4.46
2023-03-26T00:23:40.013Z,4.28
2023-03-26T00:26:10.683Z,4.22
2023-03-26T00:28:40.434Z,4.11
2023-03-26T00:31:10.553Z,4.01
2023-03-26T00:33:38.254Z,3.92
2023-03-26T00:36:09.889Z,4.02
2023-03-26T00:38:39.101Z,3.92
2023-03-26T00:41:17.539Z,3.82
2023-03-26T00:43:46.711Z,3.88
2023-03-26T00:46:13.274Z,3.76
2023-03-26T00:48:45.465Z,3.68
2023-03-26T00:51:15.406Z,3.58
2023-03-26T00:53:46.341Z,3.58
2023-03-26T00:56:13.596Z,3.59
2023-03-26T00:58:40.602Z,3.65
2023-03-26T01:01:18.889Z,3.73
2023-03-26T01:03:57.101Z,3.89
2023-03-26T01:06:35.683Z,4.09
2023-03-26T01:09:11.099Z,3.81
2023-03-26T01:11:37.719Z,3.95
2023-03-26T01:14:14.566Z,4.08
2023-03-26T01:16:45.160Z,4.00
2023-03-26T01:19:22.790Z,3.97
2023-03-26T01:21:49.299Z,4.05
2023-03-26T01:24:16.227Z,4.30
2023-03-26T01:27:04.424Z,4.53
2023-03-26T01:29:41.759Z,4.67
2023-03-26T01:32:24.405Z,4.63
2023-03-26T01:34:59.020Z,4.80
2023-03-26T01:37:30.492Z,4.98
2023-03-26T01:40:07.171Z,5.03
2023-03-26T01:42:59.434Z,5.14
2023-03-26T01:45:30.860Z,5.17
2023-03-26T01:47:58.409Z,5.15
2023-03-26T01:50:25.499Z,5.04
2023-03-26T01:52:52.032Z,5.07
2023-03-26T01:55:18.947Z,5.14
2023-03-26T01:58:00.442Z,5.22
2023-03-26T02:00:33.658Z,5.14
2023-03-26T02:03:31.511Z,5.27
2023-03-26T02:06:20.211Z,5.13
2023-03-26T02:09:07.036Z,4.96
2023-03-26T02:11:37.182Z,5.01
2023-03-26T02:14:05.973Z,5.02
2023-03-26T02:16:32.956Z,5.09
2023-03-26T02:19:00.234Z,5.25
2023-03-26T02:21:27.928Z,5.41
2023-03-26T02:24:03.358Z,5.27
2023-03-26T02:26:34.360Z,5.25
2023-03-26T02:29:07.585Z,5.14
2023-03-26T02:31:36.753Z,5.18
2023-03-26T02:34:03.321Z,5.08
2023-03-26T02:36:33.008Z,5.01
2023-03-26T02:39:02.443Z,5.12
2023-03-26T02:41:32.976Z,5.12
2023-03-26T02:44:03.948Z,5.04
2023-03-26T02:46:50.439Z,4.95
2023-03-26T02:49:35.809Z,4.93
2023-03-26T02:52:06.305Z,4.87
2023-03-26T02:54:34.479Z,4.90
2023-03-26T02:57:21.429Z,4.93
2023-03-26T03:00:12.693Z,5.01
2023-03-26T03:02:39.820Z,4.97
2023-03-26T03:05:26.673Z,4.90
2023-03-26T03:08:11.448Z,4.94
2023-03-26T03:10:44.630Z,5.03
2023-03-26T03:13:19.709Z,4.92
2023-03-26T03:15:47.116Z,4.89
2023-03-26T03:18:13.656Z,4.89
2023-03-26T03:20:40.313Z,4.80
2023-03-26T03:23:06.973Z,4.79
2023-03-26T03:25:33.771Z,4.78
2023-03-26T03:28:00.657Z,4.80
2023-03-26T03:30:27.201Z,4.88
2023-03-26T03:32:53.765Z,4.89
2023-03-26T03:35:23.134Z,4.91
2023-03-26T03:37:54.095Z,4.93
2023-03-26T03:40:20.654Z,4.95
2023-03-26T03:42:47.495Z,5.00
2023-03-26T03:45:20.345Z,5.08
2023-03-26T03:48:06.476Z,5.05
2023-03-26T03:50:39.249Z,5.08
2023-03-26T03:53:26.475Z,5.17
2023-03-26T03:55:58.539Z,5.20
2023-03-26T03:58:47.995Z,5.19
2023-03-26T04:01:22.651Z,5.18
2023-03-26T04:03:58.810Z,5.02
2023-03-26T04:06:37.074Z,4.98
2023-03-26T04:09:03.964Z,5.02
2023-03-26T04:11:30.785Z,5.00
2023-03-26T04:14:12.154Z,4.99
2023-03-26T04:16:59.807Z,4.93
2023-03-26T04:19:28.894Z,4.89
2023-03-26T04:21:55.454Z,4.87
2023-03-26T04:24:22.425Z,4.91
2023-03-26T04:27:16.508Z,5.01
2023-03-26T04:29:48.172Z,4.97
2023-03-26T04:32:19.411Z,5.02
2023-03-26T04:34:47.937Z,5.06
2023-03-26T04:37:26.522Z,5.11
2023-03-26T04:40:11.417Z,4.98
2023-03-26T04:42:47.333Z,4.89
2023-03-26T04:45:26.156Z,4.61
2023-03-26T04:47:59.760Z,4.57
2023-03-26T04:50:26.878Z,4.61
2023-03-26T04:52:56.663Z,4.64
2023-03-26T04:55:59.104Z,4.73
2023-03-26T04:58:46.037Z,4.84
2023-03-26T05:01:12.566Z,4.91
2023-03-26T05:03:45.606Z,5.03
2023-03-26T05:06:14.096Z,5.03
2023-03-26T05:08:41.789Z,5.11
2023-03-26T05:11:12.247Z,5.07
2023-03-26T05:13:39.536Z,5.04
2023-03-26T05:16:11.409Z,5.07
2023-03-26T05:18:47.671Z,5.07
2023-03-26T05:21:14.283Z,5.07
2023-03-26T05:23:41.039Z,4.99
2023-03-26T05:26:16.969Z,4.95
2023-03-26T05:28:43.525Z,4.95
2023-03-26T05:31:33.431Z,4.99
2023-03-26T05:34:01.434Z,5.01
2023-03-26T05:36:28.404Z,4.98
2023-03-26T05:39:06.107Z,4.94
2023-03-26T05:41:55.868Z,4.81
2023-03-26T05:44:28.225Z,4.64
2023-03-26T05:46:55.319Z,4.77
2023-03-26T05:49:25.726Z,4.79
2023-03-26T05:51:55.445Z,4.94
2023-03-26T05:54:34.671Z,5.04
2023-03-26T05:57:22.196Z,5.21
2023-03-26T06:00:24.192Z,5.27
2023-03-26T06:02:56.485Z,5.24
2023-03-26T06:05:57.966Z,5.26
2023-03-26T06:08:39.619Z,5.33
2023-03-26T06:11:10.264Z,5.42
2023-03-26T06:13:39.895Z,5.68
2023-03-26T06:16:07.089Z,5.71
2023-03-26T06:18:37.059Z,5.77
2023-03-26T06:21:12.380Z,5.66
2023-03-26T06:23:44.538Z,5.54
2023-03-26T06:26:30.642Z,5.65
2023-03-26T06:29:17.066Z,5.62
2023-03-26T06:32:16.384Z,5.60
2023-03-26T06:34:49.897Z,5.65
2023-03-26T06:37:18.116Z,5.69
2023-03-26T06:39:46.278Z,5.76
2023-03-26T06:42:18.764Z,5.77
2023-03-26T06:44:45.386Z,5.76
2023-03-26T06:47:30.822Z,5.81
2023-03-26T06:50:15.942Z,5.89
2023-03-26T06:53:11.895Z,5.92
2023-03-26T06:55:54.593Z,5.85
2023-03-26T06:58:23.859Z,5.78
2023-03-26T07:01:09.053Z,5.78
2023-03-26T07:03:54.462Z,5.79
2023-03-26T07:06:39.665Z,5.77
2023-03-26T07:09:26.261Z,5.72
2023-03-26T07:12:27.940Z,5.75
2023-03-26T07:15:12.906Z,5.76
2023-03-26T07:18:14.979Z,5.79
2023-03-26T07:20:45.142Z,5.73
2023-03-26T07:23:13.744Z,5.65
2023-03-26T07:25:56.729Z,5.92
2023-03-26T07:28:40.076Z,5.78
2023-03-26T07:31:27.088Z,5.58
2023-03-26T07:34:40.587Z,5.57
2023-03-26T07:37:50.203Z,5.78
2023-03-26T07:40:49.100Z,5.75
2023-03-26T07:44:18.333Z,5.72
2023-03-26T07:47:32.758Z,5.83
2023-03-26T07:50:23.496Z,5.60
2023-03-26T07:53:01.872Z,5.57
2023-03-26T07:55:41.708Z,5.42
2023-03-26T07:59:13.061Z,5.57
2023-03-26T08:02:33.527Z,5.64
2023-03-26T08:05:30.291Z,5.63
2023-03-26T08:08:25.722Z,5.71
2023-03-26T08:11:30.074Z,5.82
2023-03-26T08:14:03.113Z,5.97
2023-03-26T08:17:00.674Z,5.94
2023-03-26T08:19:50.830Z,6.01
2023-03-26T08:22:26.251Z,6.02
2023-03-26T08:25:12.242Z,5.99
2023-03-26T08:27:51.742Z,5.92
2023-03-26T08:30:24.440Z,5.98
2023-03-26T08:33:21.399Z,6.03
2023-03-26T08:35:48.925Z,5.80
2023-03-26T08:38:18.457Z,5.67
2023-03-26T08:41:14.642Z,5.70
2023-03-26T08:43:56.510Z,5.93
2023-03-26T08:46:32.357Z,6.06
2023-03-26T08:49:29.922Z,5.75
2023-03-26T08:52:18.224Z,5.58
2023-03-26T08:55:06.638Z,5.61
2023-03-26T08:57:53.539Z,5.62
2023-03-26T09:00:31.052Z,5.54
2023-03-26T09:03:35.762Z,5.53
2023-03-26T09:06:17.452Z,5.72
2023-03-26T09:09:33.113Z,6.02
2023-03-26T09:12:25.471Z,6.14
2023-03-26T09:15:20.324Z,6.10
2023-03-26T09:18:05.747Z,6.07
2023-03-26T09:21:01.902Z,6.24
2023-03-26T09:23:48.432Z,6.50
2023-03-26T09:26:25.986Z,6.82
2023-03-26T09:29:22.538Z,7.08
2023-03-26T09:32:26.540Z,7.39
2023-03-26T09:35:13.780Z,7.27
2023-03-26T09:37:58.612Z,7.63
2023-03-26T09:40:44.860Z,7.48
2023-03-26T09:43:42.902Z,7.68
2023-03-26T09:46:28.243Z,7.86
2023-03-26T09:49:25.260Z,7.80
2023-03-26T09:52:21.012Z,7.78
2023-03-26T09:54:53.513Z,8.07
2023-03-26T09:57:37.606Z,8.14
2023-03-26T10:00:43.265Z,8.39
2023-03-26T10:03:32.518Z,8.42
2023-03-26T10:06:37.081Z,8.55
2023-03-26T10:09:18.236Z,8.71
2023-03-26T10:11:47.729Z,8.93
2023-03-26T10:14:32.692Z,9.10
2023-03-26T10:17:28.342Z,9.33
2023-03-26T10:20:09.350Z,9.37
2023-03-26T10:22:57.769Z,9.50
2023-03-26T10:25:50.718Z,9.61
2023-03-26T10:28:55.691Z,9.81
2023-03-26T10:31:51.382Z,9.85
2023-03-26T10:34:55.658Z,10.06
2023-03-26T10:37:37.779Z,10.23
2023-03-26T10:40:20.262Z,10.28
2023-03-26T10:43:02.006Z,10.45
2023-03-26T10:45:35.760Z,10.77
2023-03-26T10:48:30.220Z,10.61
2023-03-26T10:51:05.689Z,10.62
2023-03-26T10:53:50.563Z,10.66
2023-03-26T10:56:28.549Z,10.64
2023-03-26T10:58:56.992Z,10.35
2023-03-26T11:01:43.745Z,10.70
2023-03-26T11:04:26.979Z,10.75
2023-03-26T11:06:53.439Z,10.59
2023-03-26T11:09:31.065Z,10.49
2023-03-26T11:12:27.108Z,10.82
2023-03-26T11:15:06.436Z,11.13
2023-03-26T11:17:50.619Z,11.01
2023-03-26T11:20:40.252Z,11.12
2023-03-26T11:23:21.879Z,10.90
2023-03-26T11:25:51.290Z,10.88
2023-03-26T11:28:31.870Z,10.83
2023-03-26T11:31:08.507Z,10.74
2023-03-26T11:33:45.537Z,10.80
2023-03-26T11:36:17.725Z,10.67
2023-03-26T11:38:47.425Z,10.21
2023-03-26T11:41:25.757Z,9.94
2023-03-26T11:44:05.287Z,9.57
2023-03-26T11:46:38.779Z,9.13
2023-03-26T11:49:11.176Z,8.66
2023-03-26T11:51:39.973Z,8.35
2023-03-26T11:54:11.092Z,8.16
2023-03-26T11:57:04.458Z,8.27
2023-03-26T11:59:56.576Z,8.62
2023-03-26T12:02:35.562Z,8.81
2023-03-26T12:05:33.423Z,9.00
2023-03-26T12:08:02.709Z,9.26
2023-03-26T12:10:32.539Z,9.40
2023-03-26T12:13:02.597Z,9.48
2023-03-26T12:15:31.938Z,9.52
2023-03-26T12:18:17.412Z,9.41
2023-03-26T12:20:45.008Z,9.62
2023-03-26T12:23:36.177Z,9.66
2023-03-26T12:26:14.275Z,9.59
2023-03-26T12:28:48.824Z,9.63
2023-03-26T12:31:19.051Z,9.85
2023-03-26T12:34:07.750Z,10.02
2023-03-26T12:36:35.721Z,10.26
2023-03-26T12:40:07.089Z,10.32
2023-03-26T12:44:48.503Z,10.19
2023-03-26T12:45:14.432Z,9.92
2023-03-26T12:47:57.523Z,9.98
2023-03-26T12:51:12.839Z,10.05
2023-03-26T12:53:59.194Z,10.21
2023-03-26T12:56:38.472Z,10.15
2023-03-26T12:59:23.436Z,10.22
2023-03-26T13:02:29.207Z,10.13
2023-03-26T13:05:06.537Z,10.15
2023-03-26T13:07:58.512Z,10.26
2023-03-26T13:10:53.529Z,10.43
2023-03-26T13:13:32.962Z,10.19
2023-03-26T13:16:04.368Z,10.14
2023-03-26T13:18:37.180Z,10.36
2023-03-26T13:21:12.509Z,10.51
2023-03-26T13:24:00.671Z,10.39
2023-03-26T13:26:55.170Z,10.43
2023-03-26T13:29:31.390Z,10.59
2023-03-26T13:32:23.066Z,10.52
2023-03-26T13:35:18.151Z,10.38
2023-03-26T13:38:05.545Z,10.34
2023-03-26T13:40:37.710Z,10.32
2023-03-26T13:43:32.521Z,10.52
2023-03-26T13:46:13.572Z,10.50
2023-03-26T13:48:52.915Z,10.46
2023-03-26T13:51:56.002Z,10.44
2023-03-26T13:54:31.306Z,10.76
2023-03-26T13:57:07.635Z,10.85
2023-03-26T13:59:54.478Z,10.79
2023-03-26T14:02:33.687Z,10.79
2023-03-26T14:05:05.445Z,10.56
2023-03-26T14:07:44.640Z,10.67
2023-03-26T14:10:22.173Z,10.66
2023-03-26T14:13:19.044Z,10.72
2023-03-26T14:15:58.348Z,10.76
2023-03-26T14:18:35.841Z,10.68
2023-03-26T14:21:21.658Z,10.75
2023-03-26T14:24:26.651Z,10.37
2023-03-26T14:27:08.431Z,10.39
2023-03-26T14:29:41.537Z,10.04
2023-03-26T14:32:36.861Z,9.74
2023-03-26T14:35:46.975Z,9.25
2023-03-26T14:38:38.263Z,8.86
2023-03-26T14:41:24.782Z,8.63
2023-03-26T14:44:09.781Z,8.51
2023-03-26T14:46:50.939Z,8.40
2023-03-26T14:49:17.423Z,7.99
2023-03-26T14:52:09.597Z,6.66
2023-03-26T14:54:42.909Z,6.28
2023-03-26T14:57:28.948Z,5.94
2023-03-26T15:00:20.821Z,5.90
2023-03-26T15:03:07.421Z,5.66
2023-03-26T15:05:42.841Z,5.52
2023-03-26T15:08:35.175Z,5.44
2023-03-26T15:11:02.137Z,5.31
2023-03-26T15:13:48.457Z,5.37
2023-03-26T15:16:45.394Z,5.30
2023-03-26T15:19:30.832Z,5.38
2023-03-26T15:22:20.141Z,5.33
2023-03-26T15:25:21.999Z,5.35
2023-03-26T15:28:25.544Z,5.33
2023-03-26T15:31:31.694Z,5.40
2023-03-26T15:34:23.958Z,5.40
2023-03-26T15:37:11.865Z,5.37
2023-03-26T15:40:08.260Z,5.17
2023-03-26T15:42:53.621Z,5.39
2023-03-26T15:45:37.034Z,5.34
2023-03-26T15:48:12.595Z,5.14
2023-03-26T15:50:48.121Z,5.16
2023-03-26T15:53:29.708Z,5.10
2023-03-26T15:56:34.119Z,5.35
2023-03-26T15:59:06.263Z,5.41
2023-03-26T16:02:04.444Z,5.49
2023-03-26T16:04:52.341Z,5.47
2023-03-26T16:07:39.072Z,5.46
2023-03-26T16:10:28.156Z,5.37
2023-03-26T16:13:16.510Z,5.45
2023-03-26T16:15:51.516Z,5.50
2023-03-26T16:18:25.313Z,5.46
2023-03-26T16:21:04.329Z,5.54
2023-03-26T16:23:53.671Z,5.62
2023-03-26T16:26:35.551Z,5.67
2023-03-26T16:29:04.659Z,5.68
2023-03-26T16:31:38.687Z,5.69
2023-03-26T16:34:07.791Z,5.85
2023-03-26T16:36:44.171Z,5.88
2023-03-26T16:39:24.381Z,5.69
2023-03-26T16:42:06.467Z,5.71
2023-03-26T16:45:00.915Z,5.62
2023-03-26T16:47:45.934Z,5.72
2023-03-26T16:50:12.461Z,5.65
2023-03-26T16:52:56.893Z,5.68
2023-03-26T16:55:42.738Z,5.79
2023-03-26T16:58:37.113Z,5.85
2023-03-26T17:01:08.470Z,5.85
2023-03-26T17:04:07.069Z,5.91
2023-03-26T17:06:56.454Z,5.88
2023-03-26T17:09:34.291Z,6.03
2023-03-26T17:12:12.463Z,5.90
2023-03-26T17:15:06.392Z,5.94
2023-03-26T17:17:54.861Z,5.91
2023-03-26T17:20:33.394Z,5.88
2023-03-26T17:23:13.884Z,5.98
2023-03-26T17:25:54.339Z,6.04
2023-03-26T17:28:47.005Z,6.07
2023-03-26T17:31:41.197Z,5.83
2023-03-26T17:34:39.101Z,5.97
2023-03-26T17:37:10.464Z,5.73
2023-03-26T17:39:39.874Z,5.67
2023-03-26T17:42:15.700Z,5.63
2023-03-26T17:44:44.130Z,5.68
2023-03-26T17:47:20.749Z,5.70
2023-03-26T17:49:52.848Z,5.77
2023-03-26T17:52:48.088Z,5.77
2023-03-26T17:55:19.651Z,5.71
2023-03-26T17:57:51.522Z,5.59
2023-03-26T18:00:22.718Z,5.58
2023-03-26T18:02:57.200Z,5.41
2023-03-26T18:05:28.178Z,5.39
2023-03-26T18:08:28.358Z,5.37
2023-03-26T18:11:17.586Z,5.32
2023-03-26T18:14:02.511Z,5.33
2023-03-26T18:16:59.796Z,5.44
2023-03-26T18:19:26.831Z,5.42
2023-03-26T18:21:56.783Z,5.43
2023-03-26T18:24:32.836Z,5.62
2023-03-26T18:27:06.102Z,5.66
2023-03-26T18:29:35.315Z,5.64
2023-03-26T18:32:03.546Z,5.71
2023-03-26T18:34:32.801Z,5.61
2023-03-26T18:37:14.611Z,5.59
2023-03-26T18:39:42.929Z,5.42
2023-03-26T18:42:23.459Z,5.41
2023-03-26T18:44:52.941Z,5.47
2023-03-26T18:47:20.460Z,5.34
2023-03-26T18:49:49.597Z,5.32
2023-03-26T18:52:19.276Z,5.30
2023-03-26T18:54:52.778Z,5.21
2023-03-26T18:57:27.132Z,5.33
2023-03-26T18:59:56.604Z,5.08
2023-03-26T19:02:25.254Z,4.99
2023-03-26T19:04:54.318Z,4.91
2023-03-26T19:07:25.166Z,4.87
2023-03-26T19:09:56.184Z,4.93
2023-03-26T19:12:31.011Z,4.75
2023-03-26T19:15:02.277Z,4.76
2023-03-26T19:17:31.543Z,4.70
2023-03-26T19:19:58.340Z,4.52
2023-03-26T19:22:25.286Z,4.42
2023-03-26T19:24:56.113Z,4.39
2023-03-26T19:27:22.794Z,4.33
2023-03-26T19:29:49.238Z,4.37
2023-03-26T19:32:20.407Z,4.28
2023-03-26T19:34:48.104Z,4.21
2023-03-26T19:37:22.738Z,4.18
2023-03-26T19:39:51.267Z,4.20
2023-03-26T19:42:23.742Z,4.21
2023-03-26T19:44:51.608Z,4.24
2023-03-26T19:47:19.789Z,4.25
2023-03-26T19:49:49.604Z,4.19
2023-03-26T19:52:20.725Z,4.24
2023-03-26T19:55:00.511Z,4.25
2023-03-26T19:57:31.977Z,4.26
2023-03-26T19:59:59.148Z,4.24
2023-03-26T20:02:26.361Z,4.27
2023-03-26T20:04:52.876Z,4.24
2023-03-26T20:07:22.068Z,4.00
2023-03-26T20:10:02.945Z,4.12
2023-03-26T20:12:29.560Z,4.20
2023-03-26T20:14:56.315Z,4.18
2023-03-26T20:17:22.722Z,4.11
2023-03-26T20:19:49.140Z,3.84
2023-03-26T20:22:16.893Z,3.81
2023-03-26T20:24:44.842Z,3.89
2023-03-26T20:27:14.425Z,3.84
2023-03-26T20:29:41.074Z,3.79
2023-03-26T20:32:17.461Z,3.78
2023-03-26T20:34:44.530Z,3.74
2023-03-26T20:37:10.898Z,3.76
2023-03-26T20:39:37.816Z,3.79
2023-03-26T20:42:04.246Z,3.82
2023-03-26T20:44:30.977Z,3.90
2023-03-26T20:46:58.929Z,4.03
2023-03-26T20:49:25.661Z,4.08
2023-03-26T20:51:52.699Z,4.16
2023-03-26T20:54:24.115Z,4.14
2023-03-26T20:56:51.139Z,4.33
2023-03-26T20:59:22.273Z,4.42
2023-03-26T21:01:49.811Z,4.53
2023-03-26T21:04:17.110Z,4.54
2023-03-26T21:06:43.915Z,4.61
2023-03-26T21:09:17.763Z,4.57
2023-03-26T21:12:05.742Z,4.62
2023-03-26T21:14:44.016Z,4.53
2023-03-26T21:17:22.129Z,4.38
2023-03-26T21:19:49.244Z,4.25
2023-03-26T21:22:15.655Z,4.14
2023-03-26T21:24:48.450Z,4.20
2023-03-26T21:27:17.972Z,4.13
2023-03-26T21:29:44.697Z,4.17
2023-03-26T21:32:12.222Z,4.21
2023-03-26T21:34:47.636Z,4.24
2023-03-26T21:37:19.092Z,4.28
2023-03-26T21:39:46.136Z,4.25
2023-03-26T21:42:13.080Z,4.20
2023-03-26T21:44:39.680Z,4.19
2023-03-26T21:47:09.778Z,4.15
2023-03-26T21:49:37.195Z,4.08
2023-03-26T21:52:04.219Z,4.19
2023-03-26T21:54:32.007Z,4.19
2023-03-26T21:57:04.350Z,4.08
2023-03-26T21:59:36.397Z,4.12
2023-03-26T22:02:07.633Z,4.09
2023-03-26T22:04:51.165Z,4.12
2023-03-26T22:07:18.905Z,4.10
2023-03-26T22:09:45.481Z,4.27
2023-03-26T22:12:12.429Z,4.28
2023-03-26T22:14:38.902Z,4.25
2023-03-26T22:17:05.691Z,4.23
2023-03-26T22:19:32.106Z,4.40
2023-03-26T22:22:00.024Z,4.46
2023-03-26T22:24:27.070Z,4.39
2023-03-26T22:26:53.594Z,4.48
2023-03-26T22:29:19.965Z,4.50
2023-03-26T22:31:46.456Z,4.52
2023-03-26T22:34:13.063Z,4.54
2023-03-26T22:36:40.460Z,4.52
2023-03-26T22:39:07.140Z,4.53
2023-03-26T22:41:33.579Z,4.52
2023-03-26T22:44:09.451Z,4.53
2023-03-26T22:46:47.344Z,4.57
2023-03-26T22:49:13.799Z,4.55
2023-03-26T22:51:40.270Z,4.55
2023-03-26T22:54:06.630Z,4.55
2023-03-26T22:56:33.149Z,4.52
2023-03-26T22:58:59.585Z,4.49
2023-03-26T23:01:26.119Z,4.51
2023-03-26T23:03:52.627Z,4.51
2023-03-26T23:06:19.062Z,4.50
2023-03-26T23:08:45.512Z,4.52
2023-03-26T23:11:13.485Z,4.51
2023-03-26T23:13:40.752Z,4.48
2023-03-26T23:16:07.540Z,4.47
2023-03-26T23:18:34.407Z,4.44
2023-03-26T23:21:00.833Z,4.48
2023-03-26T23:23:28.715Z,4.51
2023-03-26T23:25:56.014Z,4.50
2023-03-26T23:28:23.901Z,4.58
2023-03-26T23:30:52.184Z,4.54
2023-03-26T23:33:20.487Z,4.59
2023-03-26T23:35:47.860Z,4.57
2023-03-26T23:38:14.282Z,4.52
2023-03-26T23:40:43.865Z,4.51
2023-03-26T23:43:10.746Z,4.49
2023-03-26T23:45:37.463Z,4.45
2023-03-26T23:48:04.916Z,4.35
2023-03-26T23:50:31.367Z,4.36
2023-03-26T23:52:58.212Z,4.33
2023-03-26T23:55:28.082Z,4.34
2023-03-26T23:57:54.692Z,4.34
